To NAV CANADA Home Page Login to a new session Search on AWWS site Feedback and Comments Disclaimer Vers la page française équivalente Tips FAQ What's new on the site To the Forecasts and Observations / NOTAM section To "File a Flight Plan" website Publications and other links Update of the User's profile FIC Telephone Numbers My Weather Data Folder Route Weather Data Regional Weather Data Local Weather Data To the Forecasts and Observations / NOTAM section
Request Generated 06/30/2015 at 19:39:44 UTC . Weather information available at that time is displayed.

METAR/TAF

KANGIRSUK/QC    

METAR CYAS 301900Z 16003KT 15SM OVC040 10/03 A2984 RMK SC8 LAST OBS/NEXT 021200UTC SLP112=
METAR CYAS 301800Z 22003KT 15SM OVC040 10/02 A2983 RMK SC8 SLP108=
METAR CYAS 301700Z 25004KT 15SM OVC038 11/02 A2982 RMK SC8 SLP106=

CYAS - No TAF is issued for this station

Your time UTC time
Weather data provided by Environment Canada and NAV CANADA